METAR Data
IDs: Format: Raw Decoded Include TAF

Data at: 1224 UTC 23 Sep 2018

KSBN 231154Z 00000KT 7SM CLR 08/08 A3021 RMK AO2 SLP230 T00830078 10100 20072 53003
KSBN 231054Z 00000KT 9SM CLR 08/07 A3020 RMK AO2 SLP227 T00780067
KSBN 230954Z 00000KT 9SM CLR 08/07 A3020 RMK AO2 SLP227 T00830072
KSBN 230854Z AUTO 00000KT 10SM CLR 08/08 A3020 RMK AO2 SLP226 T00830078 56004
KSBN 230754Z AUTO 07003KT 10SM CLR 09/08 A3020 RMK AO2 SLP227 T00940078
KSBN 230654Z AUTO 09003KT 10SM CLR 10/08 A3019 RMK AO2 SLP224 T01000078
KSBN 230554Z AUTO 09003KT 9SM CLR 10/08 A3021 RMK AO2 SLP230 T01000083 10144 20094 56009
KSBN 230454Z AUTO 10004KT 7SM CLR 11/09 A3022 RMK AO2 SLP233 T01060089 401670094
KSBN 230354Z AUTO 09003KT 10SM CLR 09/08 A3023 RMK AO2 SLP237 T00940083
KSBN 230254Z 00000KT 10SM CLR 11/08 A3023 RMK AO2 SLP240 T01110083 51004
KSBN 230154Z 00000KT 10SM CLR 11/08 A3023 RMK AO2 SLP239 T01110083
KSBN 230054Z 00000KT 10SM CLR 12/08 A3023 RMK AO2 SLP238 T01170083
KSBN 222354Z 07003KT 10SM CLR 14/08 A3022 RMK AO2 SLP235 T01440083 10167 20139 56009
KSBN 222254Z 08005KT 10SM CLR 16/08 A3023 RMK AO2 SLP238 T01610078
KSBN 222154Z 12006KT 10SM CLR 16/08 A3023 RMK AO2 SLP238 T01610078
KSBN 222054Z VRB04KT 10SM CLR 17/08 A3025 RMK AO2 SLP244 T01670078 56020
KSBN 221954Z 08005KT 10SM CLR 16/07 A3026 RMK AO2 SLP247 T01560072
KSBN 221854Z AUTO 09004KT 10SM CLR 15/07 A3028 RMK AO2 SLP254 T01500067
KSBN 221754Z 08006KT 10SM CLR 14/07 A3031 RMK AO2 SLP264 T01440067 10144 20094 58011
KSBN 221654Z 09007KT 10SM CLR 13/06 A3033 RMK AO2 SLP270 T01330061
KSBN 221554Z 09007KT 10SM CLR 13/06 A3034 RMK AO2 SLP274 T01280061
KSBN 221454Z 09008KT 10SM CLR 12/06 A3034 RMK AO2 SLP275 T01220061 51007
KSBN 221354Z 06006KT 10SM CLR 11/06 A3034 RMK AO2 SLP275 T01060061
KSBN 221254Z 04007KT 10SM CLR 10/06 A3033 RMK AO2 SLP273 T01000061
KSBN 221154Z 03005KT 10SM CLR 09/06 A3032 RMK AO2 SLP268 70002 T00940061 10133 20094 53013
KSBN 221054Z 04006KT 10SM CLR 10/06 A3031 RMK AO2 SLP264 T01000056
KSBN 220954Z 03009KT 10SM CLR 11/06 A3029 RMK AO2 SLP257 T01060056
KSBN 220854Z AUTO 01007KT 10SM CLR 11/06 A3028 RMK AO2 SLP254 T01060056 51010
KSBN 220754Z AUTO 03010KT 10SM CLR 12/06 A3028 RMK AO2 SLP252 T01170056
KSBN 220654Z AUTO 02013G18KT 10SM CLR 12/06 A3027 RMK AO2 SLP249 T01220061
KSBN 220554Z AUTO 01012KT 10SM BKN045 13/07 A3025 RMK AO2 SLP243 T01330072 10178 20133 51018
KSBN 220454Z AUTO 01011G21KT 10SM SCT037 OVC044 14/08 A3024 RMK AO2 SLP238 T01440083 402560144
KSBN 220354Z AUTO 35018G25KT 10SM FEW037 OVC045 16/09 A3022 RMK AO2 SLP232 T01560089
KSBN 220254Z 33010KT 10SM FEW035 BKN050 16/10 A3020 RMK AO2 SLP223 T01610100 51038
KSBN 220154Z 33012KT 10SM CLR 16/10 A3018 RMK AO2 SLP215 T01610100
KSBN 220054Z 33015G24KT 10SM FEW031 17/11 A3013 RMK AO2 SLP201 T01670106